Time;durP1;ratioP1;P1;durP2;ratioP2;P2;SDS_P1;SDS_P2;PMS_P1;PMS_P2;Temp;Humidity;BMP_temperature;BMP_pressure;BME280_temperature;BME280_humidity;BME280_pressure;Samples;Min_cycle;Max_cycle;Signal;HPM_P1;HPM_P2
2021/08/12 00:00:23;;;;;;;18.42;7.25;;;;;;;23.42;100.00;100393.31;1753379;81;20974;-83
2021/08/12 00:02:49;;;;;;;18.50;8.03;;;;;;;23.35;100.00;100387.85;1753309;81;20872;-83
2021/08/12 00:05:15;;;;;;;19.25;8.03;;;;;;;23.31;100.00;100399.89;1753540;81;20891;-83
2021/08/12 00:07:41;;;;;;;17.12;7.50;;;;;;;23.25;100.00;100406.21;1753617;81;20915;-83
2021/08/12 00:10:08;;;;;;;18.35;8.15;;;;;;;23.20;100.00;100417.45;1753205;81;21871;-82
2021/08/12 00:12:34;;;;;;;24.67;7.70;;;;;;;23.17;100.00;100414.61;1753251;81;21525;-81
2021/08/12 00:15:01;;;;;;;24.87;7.58;;;;;;;23.19;100.00;100420.56;1753277;81;20892;-87
2021/08/12 00:17:27;;;;;;;15.28;8.18;;;;;;;23.21;100.00;100414.16;1753425;81;20999;-81
2021/08/12 00:19:53;;;;;;;19.55;7.78;;;;;;;23.13;100.00;100413.14;1753375;81;21700;-83
2021/08/12 00:22:19;;;;;;;19.87;8.48;;;;;;;23.11;100.00;100424.47;1753445;81;21002;-81
2021/08/12 00:24:45;;;;;;;19.90;7.80;;;;;;;23.09;100.00;100413.05;1753150;81;20880;-81
2021/08/12 00:27:10;;;;;;;18.65;8.08;;;;;;;23.07;100.00;100412.58;1753337;81;20974;-88
2021/08/12 00:29:36;;;;;;;18.60;7.50;;;;;;;23.09;100.00;100417.74;1753236;81;20865;-81
2021/08/12 00:32:03;;;;;;;26.17;8.55;;;;;;;23.06;100.00;100409.62;1753048;81;20943;-82
2021/08/12 00:34:29;;;;;;;18.35;8.38;;;;;;;23.07;100.00;100412.58;1753173;81;21880;-82
2021/08/12 00:36:55;;;;;;;22.30;8.25;;;;;;;23.10;100.00;100416.59;1752860;81;20998;-82
2021/08/12 00:39:21;;;;;;;19.73;8.25;;;;;;;23.09;100.00;100420.49;1753321;81;20883;-81
2021/08/12 00:41:48;;;;;;;15.55;7.72;;;;;;;23.08;100.00;100426.54;1753466;81;21582;-82
2021/08/12 00:44:14;;;;;;;17.77;8.58;;;;;;;23.08;100.00;100435.37;1753335;81;21557;-82
2021/08/12 00:46:40;;;;;;;17.37;7.45;;;;;;;23.07;100.00;100433.20;1755458;81;21158;-85
2021/08/12 00:49:06;;;;;;;24.45;8.48;;;;;;;23.11;100.00;100434.67;1756774;81;21034;-82
2021/08/12 00:51:33;;;;;;;24.60;8.13;;;;;;;23.10;100.00;100433.87;1756912;81;20939;-81
2021/08/12 00:54:00;;;;;;;21.50;8.48;;;;;;;23.06;100.00;100434.91;1756743;81;21050;-82
2021/08/12 00:56:28;;;;;;;18.20;8.15;;;;;;;23.03;100.00;100436.43;1756721;81;21026;-82
2021/08/12 00:58:54;;;;;;;23.92;8.13;;;;;;;23.01;100.00;100437.34;1756857;81;21862;-82
2021/08/12 01:01:23;;;;;;;18.80;8.45;;;;;;;23.00;100.00;100433.55;1756882;81;20856;-88
2021/08/12 01:03:49;;;;;;;15.10;7.60;;;;;;;23.00;100.00;100434.92;1680410;85;21092;-82
2021/08/12 01:06:20;;;;;;;16.57;7.62;;;;;;;22.98;100.00;100429.79;1680326;85;21079;-82
2021/08/12 01:09:03;;;;;;;31.57;7.72;;;;;;;22.96;100.00;100434.03;1673925;85;21564;-82
2021/08/12 01:11:41;;;;;;;19.82;7.62;;;;;;;22.97;100.00;100432.33;1678126;85;21337;-82
2021/08/12 01:14:39;;;;;;;15.93;7.72;;;;;;;22.92;100.00;100442.73;1671380;85;21027;-81
2021/08/12 01:17:20;;;;;;;19.73;8.23;;;;;;;22.89;100.00;100438.72;1671405;85;21110;-83
2021/08/12 01:20:08;;;;;;;20.02;8.55;;;;;;;22.83;100.00;100434.61;1668201;85;21055;-82
2021/08/12 01:22:38;;;;;;;17.37;8.33;;;;;;;22.83;100.00;100427.74;1671350;85;21506;-82
2021/08/12 01:25:09;;;;;;;17.85;7.95;;;;;;;22.83;100.00;100427.74;1668563;85;21093;-81
2021/08/12 01:27:37;;;;;;;20.20;8.83;;;;;;;22.84;100.00;100420.51;1616764;88;21085;-82
2021/08/12 01:30:10;;;;;;;18.23;8.68;;;;;;;22.84;100.00;100422.47;1592802;90;21045;-81
2021/08/12 01:33:20;;;;;;;16.67;8.40;;;;;;;22.86;100.00;100420.18;1619860;88;21103;-81
2021/08/12 01:35:47;;;;;;;17.70;8.68;;;;;;;22.85;100.00;100416.64;1635462;86;21669;-82
2021/08/12 01:38:18;;;;;;;24.63;8.95;;;;;;;22.88;100.00;100415.11;1619950;88;21620;-80
2021/08/12 01:40:45;;;;;;;18.73;8.63;;;;;;;22.88;100.00;100420.06;1616917;88;20953;-81
2021/08/12 01:43:17;;;;;;;20.80;8.53;;;;;;;22.89;100.00;100418.11;1635297;87;21214;-84
2021/08/12 01:45:53;;;;;;;26.15;9.00;;;;;;;22.89;100.00;100423.61;1615546;88;21057;-81
2021/08/12 01:48:22;;;;;;;18.12;8.55;;;;;;;22.88;100.00;100418.69;1609017;89;21065;-82
2021/08/12 01:50:51;;;;;;;18.75;9.05;;;;;;;22.88;100.00;100415.11;1610356;89;21205;-82
2021/08/12 01:53:20;;;;;;;16.95;8.35;;;;;;;22.87;100.00;100410.78;1610439;89;21033;-81
2021/08/12 01:55:47;;;;;;;21.68;9.98;;;;;;;22.88;100.00;100417.86;1610559;89;21045;-82
2021/08/12 01:58:17;;;;;;;19.50;8.18;;;;;;;22.87;100.00;100415.69;1610667;89;21123;-80
2021/08/12 02:00:48;;;;;;;18.05;8.70;;;;;;;22.87;100.00;100410.78;1620288;88;21183;-82
2021/08/12 02:03:20;;;;;;;17.62;8.15;;;;;;;22.86;100.00;100409.98;1603010;89;21053;-82
2021/08/12 02:05:49;;;;;;;21.45;8.75;;;;;;;22.87;100.00;100414.31;1630536;88;21052;-82
2021/08/12 02:08:19;;;;;;;16.52;8.45;;;;;;;22.87;100.00;100423.14;1618897;88;21603;-82
2021/08/12 02:10:48;;;;;;;17.55;8.28;;;;;;;22.88;100.00;100421.98;1604380;88;21029;-82
2021/08/12 02:13:14;;;;;;;18.70;8.33;;;;;;;22.88;100.00;100425.56;1566742;91;21617;-81
2021/08/12 02:15:40;;;;;;;20.60;8.75;;;;;;;22.90;100.00;100424.61;1566747;91;21086;-84
2021/08/12 02:18:06;;;;;;;23.50;8.83;;;;;;;22.94;100.00;100426.67;1566804;91;20967;-82
2021/08/12 02:20:34;;;;;;;19.35;9.10;;;;;;;22.96;100.00;100426.58;1566960;91;20901;-81
2021/08/12 02:23:14;;;;;;;22.00;8.88;;;;;;;22.98;100.00;100427.05;1566801;91;21184;-83
2021/08/12 02:26:02;;;;;;;17.62;7.97;;;;;;;23.03;100.00;100425.98;1564476;90;21573;-83
2021/08/12 02:28:31;;;;;;;16.73;8.63;;;;;;;23.04;100.00;100435.27;1559393;91;21983;-82
2021/08/12 02:30:59;;;;;;;17.55;9.10;;;;;;;23.07;100.00;100440.07;1563282;91;21044;-82
2021/08/12 02:33:33;;;;;;;20.17;9.08;;;;;;;23.09;100.00;100441.91;1563046;91;21154;-82
2021/08/12 02:35:59;;;;;;;18.48;8.25;;;;;;;23.10;100.00;100444.08;1563273;90;21525;-82
2021/08/12 02:38:26;;;;;;;19.27;8.78;;;;;;;23.10;100.00;100446.25;1563320;91;21103;-81
2021/08/12 02:40:57;;;;;;;19.15;9.00;;;;;;;23.13;100.00;100454.37;1563397;91;21151;-82
2021/08/12 02:43:25;;;;;;;17.52;9.08;;;;;;;23.16;100.00;100451.51;1563033;91;21048;-83
2021/08/12 02:45:55;;;;;;;30.80;9.43;;;;;;;23.20;100.00;100450.45;1563281;89;21689;-82
2021/08/12 02:48:28;;;;;;;20.92;8.88;;;;;;;23.23;100.00;100454.45;1562968;90;21104;-79
2021/08/12 02:50:59;;;;;;;21.05;8.80;;;;;;;23.26;100.00;100463.38;1563428;91;21092;-81
2021/08/12 02:53:30;;;;;;;24.60;9.48;;;;;;;23.29;100.00;100464.05;1563331;91;21102;-82
2021/08/12 02:55:57;;;;;;;21.93;9.63;;;;;;;23.30;100.00;100456.05;1542155;91;21655;-81
2021/08/12 02:58:24;;;;;;;19.62;9.20;;;;;;;23.33;100.00;100455.34;1563240;91;21638;-80
2021/08/12 03:00:51;;;;;;;16.37;8.75;;;;;;;23.37;100.00;100460.94;1580851;88;21608;-83
2021/08/12 03:03:19;;;;;;;26.93;9.45;;;;;;;23.40;100.00;100470.66;1567232;90;21128;-82
2021/08/12 03:05:47;;;;;;;16.90;9.58;;;;;;;23.43;100.00;100465.84;1587963;90;21113;-81
2021/08/12 03:08:18;;;;;;;19.92;9.40;;;;;;;23.44;100.00;100470.21;1657537;85;21046;-79
2021/08/12 03:10:44;;;;;;;20.80;10.05;;;;;;;23.47;100.00;100477.77;1721995;81;21025;-82
2021/08/12 03:13:12;;;;;;;21.30;9.63;;;;;;;23.48;100.00;100479.35;1772913;80;21007;-82
2021/08/12 03:15:43;;;;;;;21.93;9.30;;;;;;;23.50;100.00;100481.73;1772651;81;20941;-81
2021/08/12 03:18:09;;;;;;;21.87;9.45;;;;;;;23.52;100.00;100482.99;1773100;81;21020;-82
2021/08/12 03:20:36;;;;;;;21.12;10.40;;;;;;;23.52;100.00;100491.24;1773439;80;21036;-82
2021/08/12 03:23:03;;;;;;;23.55;10.15;;;;;;;23.54;100.00;100490.91;1758749;80;21005;-80
2021/08/12 03:25:29;;;;;;;22.17;10.18;;;;;;;23.56;100.00;100501.79;1742328;82;21485;-82
2021/08/12 03:27:55;;;;;;;25.32;10.78;;;;;;;23.61;100.00;100508.19;1742377;82;20873;-82
2021/08/12 03:30:21;;;;;;;22.95;10.23;;;;;;;23.66;100.00;100503.81;1758746;81;21836;-82
2021/08/12 03:32:47;;;;;;;30.23;11.22;;;;;;;23.69;100.00;100508.61;1758832;81;20924;-81
2021/08/12 03:35:13;;;;;;;27.90;11.78;;;;;;;23.71;100.00;100510.48;1758716;81;20879;-78
2021/08/12 03:37:39;;;;;;;20.70;10.32;;;;;;;23.79;100.00;100511.67;1758666;81;20871;-82
2021/08/12 03:40:06;;;;;;;26.90;11.45;;;;;;;23.83;100.00;100509.05;1758826;81;21037;-81
2021/08/12 03:42:32;;;;;;;23.47;10.70;;;;;;;23.86;100.00;100504.20;1758673;81;21041;-78
2021/08/12 03:44:58;;;;;;;18.67;9.35;;;;;;;23.89;100.00;100506.84;1758580;81;21533;-82
2021/08/12 03:47:24;;;;;;;20.05;10.10;;;;;;;23.91;100.00;100510.81;1744264;81;20867;-82
2021/08/12 03:49:49;;;;;;;20.60;10.03;;;;;;;23.94;100.00;100510.13;1740838;82;21612;-82
2021/08/12 03:52:15;;;;;;;21.57;10.20;;;;;;;23.96;100.00;100509.77;1740525;82;20979;-82
2021/08/12 03:54:41;;;;;;;26.57;10.25;;;;;;;24.00;100.00;100515.61;1740760;82;21083;-84
2021/08/12 03:57:08;;;;;;;20.75;10.13;;;;;;;23.98;100.00;100522.03;1740580;82;20943;-82
2021/08/12 03:59:34;;;;;;;22.30;9.80;;;;;;;24.00;100.00;100522.48;1740404;82;21046;-78
2021/08/12 04:02:00;;;;;;;21.07;10.55;;;;;;;24.07;100.00;100530.71;1740691;81;20983;-82
2021/08/12 04:04:27;;;;;;;20.50;9.65;;;;;;;24.07;100.00;100527.95;1740639;82;21586;-82
2021/08/12 04:06:53;;;;;;;21.85;9.20;;;;;;;24.13;100.00;100525.17;1740701;82;21077;-80
2021/08/12 04:09:19;;;;;;;22.52;9.25;;;;;;;24.22;100.00;100530.72;1740694;82;21070;-83
2021/08/12 04:11:45;;;;;;;18.80;8.85;;;;;;;24.34;100.00;100527.67;1740598;82;21652;-81
2021/08/12 04:14:11;;;;;;;19.23;9.30;;;;;;;24.39;100.00;100524.08;1740422;81;21035;-85
2021/08/12 04:16:40;;;;;;;17.25;9.43;;;;;;;24.49;100.00;100531.03;1740680;81;20971;-82
2021/08/12 04:19:06;;;;;;;19.52;9.08;;;;;;;24.60;100.00;100532.69;1739841;82;21038;-82
2021/08/12 04:21:32;;;;;;;17.27;9.05;;;;;;;24.69;100.00;100534.09;1740596;82;21592;-79
2021/08/12 04:23:58;;;;;;;15.90;8.85;;;;;;;24.78;100.00;100532.53;1740519;82;21066;-81
2021/08/12 04:26:27;;;;;;;21.97;8.75;;;;;;;24.90;100.00;100530.24;1740428;82;21695;-82
2021/08/12 04:28:51;;;;;;;19.48;9.50;;;;;;;25.00;100.00;100531.64;1741453;82;21081;-79
2021/08/12 04:31:17;;;;;;;21.40;8.98;;;;;;;25.09;100.00;100539.13;1740422;82;21216;-82
2021/08/12 04:33:43;;;;;;;15.63;8.48;;;;;;;25.17;100.00;100543.68;1740336;81;21043;-82
2021/08/12 04:36:09;;;;;;;22.45;9.38;;;;;;;25.32;100.00;100531.80;1740116;82;20998;-83
2021/08/12 04:38:39;;;;;;;18.48;8.33;;;;;;;25.48;100.00;100524.06;1740029;82;21014;-83
2021/08/12 04:41:04;;;;;;;18.27;8.48;;;;;;;25.66;100.00;100532.11;1739300;82;21041;-82
2021/08/12 04:43:30;;;;;;;16.50;9.18;;;;;;;25.86;100.00;100524.66;1740089;82;21862;-84
2021/08/12 04:45:57;;;;;;;18.67;9.68;;;;;;;26.17;100.00;100523.62;1739873;82;21568;-82
2021/08/12 04:48:23;;;;;;;20.12;7.83;;;;;;;26.42;100.00;100519.92;1734613;81;20974;-81
2021/08/12 04:50:49;;;;;;;16.35;8.45;;;;;;;26.64;100.00;100514.77;1734428;82;21544;-82
2021/08/12 04:53:15;;;;;;;16.45;8.75;;;;;;;26.94;100.00;100521.73;1734558;81;20974;-81
2021/08/12 04:55:41;;;;;;;15.08;8.23;;;;;;;27.30;100.00;100527.81;1756076;80;21070;-87
2021/08/12 04:58:07;;;;;;;17.95;9.00;;;;;;;27.75;100.00;100530.14;1772650;80;21111;-81
2021/08/12 05:00:34;;;;;;;17.10;8.08;;;;;;;27.85;100.00;100524.76;1787072;80;20970;-80
2021/08/12 05:03:01;;;;;;;17.10;8.38;;;;;;;28.10;100.00;100526.19;1786917;80;21034;-77
2021/08/12 05:05:27;;;;;;;13.72;8.05;;;;;;;28.66;100.00;100534.82;1786835;80;20987;-77
2021/08/12 05:07:53;;;;;;;16.07;7.72;;;;;;;29.14;100.00;100531.39;1786782;80;21080;-77
2021/08/12 05:10:19;;;;;;;17.32;7.30;;;;;;;29.80;100.00;100529.92;1786759;80;20859;-77
2021/08/12 05:12:45;;;;;;;13.58;7.33;;;;;;;30.69;100.00;100521.48;1786937;79;20879;-78
2021/08/12 05:15:11;;;;;;;23.12;7.28;;;;;;;31.61;100.00;100532.20;1782963;80;21035;-81
2021/08/12 05:17:37;;;;;;;14.18;6.40;;;;;;;32.34;99.22;100534.16;1747708;80;21026;-78
2021/08/12 05:20:04;;;;;;;11.85;6.42;;;;;;;33.16;93.29;100534.05;1778314;80;21070;-78
2021/08/12 05:22:30;;;;;;;11.03;6.83;;;;;;;33.75;84.35;100509.95;1687497;83;21011;-78
2021/08/12 05:24:56;;;;;;;12.98;6.12;;;;;;;34.50;78.95;100539.57;1711639;83;20888;-78
2021/08/12 05:27:22;;;;;;;14.50;6.70;;;;;;;35.22;72.86;100541.91;1711714;83;20948;-79
2021/08/12 05:29:48;;;;;;;10.28;6.78;;;;;;;35.57;67.29;100541.03;1687799;83;20912;-79
2021/08/12 05:32:14;;;;;;;13.20;6.62;;;;;;;35.77;65.37;100538.78;1711663;83;21617;-78
2021/08/12 05:34:40;;;;;;;10.32;6.25;;;;;;;36.47;61.78;100542.55;1687612;83;20899;-79
2021/08/12 05:37:06;;;;;;;8.60;6.37;;;;;;;37.09;59.34;100539.75;1737801;82;21047;-79
2021/08/12 05:39:32;;;;;;;11.35;6.40;;;;;;;37.81;55.98;100547.54;1741345;82;20951;-78
2021/08/12 05:41:58;;;;;;;12.33;6.67;;;;;;;38.35;51.26;100549.44;1741423;82;20884;-79
2021/08/12 05:44:24;;;;;;;9.20;6.25;;;;;;;38.54;51.20;100565.33;1741343;82;21141;-79
2021/08/12 05:46:50;;;;;;;11.83;6.53;;;;;;;39.17;48.33;100572.63;1741092;82;21634;-79
2021/08/12 05:49:16;;;;;;;13.70;6.40;;;;;;;39.57;46.73;100569.95;1716292;82;21075;-79
2021/08/12 05:51:42;;;;;;;12.68;6.30;;;;;;;39.77;44.72;100563.16;1741176;82;21095;-78
2021/08/12 05:54:08;;;;;;;9.55;6.17;;;;;;;39.92;43.44;100565.61;1741406;82;20888;-79
2021/08/12 05:56:37;;;;;;;8.20;6.53;;;;;;;40.14;42.44;100567.70;1741357;82;22372;-78
2021/08/12 05:59:03;;;;;;;11.28;6.67;;;;;;;40.52;41.54;100566.57;1740390;82;21123;-80
2021/08/12 06:01:29;;;;;;;14.35;7.10;;;;;;;40.73;40.61;100555.63;1734684;82;20843;-79
2021/08/12 06:03:55;;;;;;;12.50;6.50;;;;;;;41.08;39.38;100562.56;1734653;82;21006;-78
2021/08/12 06:06:21;;;;;;;13.15;6.85;;;;;;;41.39;38.40;100560.17;1734139;82;21030;-79
2021/08/12 06:08:47;;;;;;;14.98;6.67;;;;;;;41.44;37.21;100562.34;1734459;82;21079;-79
2021/08/12 06:11:13;;;;;;;15.50;6.67;;;;;;;41.28;37.30;100560.66;1734190;82;21382;-80
2021/08/12 06:13:39;;;;;;;15.83;7.70;;;;;;;41.36;37.02;100565.38;1734430;82;21014;-79
2021/08/12 06:16:06;;;;;;;10.23;6.33;;;;;;;41.45;36.22;100565.34;1734412;82;20891;-80
2021/08/12 06:18:32;;;;;;;16.35;7.15;;;;;;;41.51;35.53;100560.64;1703271;82;21046;-84
2021/08/12 06:20:59;;;;;;;12.65;7.25;;;;;;;41.61;34.91;100564.86;1720925;80;21185;-79
2021/08/12 06:23:25;;;;;;;11.03;6.70;;;;;;;41.82;34.82;100566.66;1747570;80;21046;-79
2021/08/12 06:25:51;;;;;;;12.43;7.15;;;;;;;42.19;34.69;100568.72;1778125;80;21062;-79
2021/08/12 06:28:17;;;;;;;12.20;7.08;;;;;;;42.78;34.14;100569.64;1778363;80;20850;-78
2021/08/12 06:30:43;;;;;;;12.20;7.40;;;;;;;43.29;33.30;100569.20;1778272;80;20995;-79
2021/08/12 06:33:09;;;;;;;12.33;7.37;;;;;;;43.34;32.89;100574.20;1778379;80;21020;-79
2021/08/12 06:35:35;;;;;;;13.00;7.30;;;;;;;43.38;32.69;100573.35;1778113;80;21010;-77
2021/08/12 06:38:07;;;;;;;12.98;7.03;;;;;;;43.55;31.92;100573.68;1778096;80;21024;-79
2021/08/12 06:40:32;;;;;;;13.08;7.15;;;;;;;43.71;31.19;100581.70;1777789;80;21024;-84
2021/08/12 06:42:57;;;;;;;10.48;6.83;;;;;;;43.48;30.70;100573.42;1778497;80;21043;-78
2021/08/12 06:45:24;;;;;;;8.75;6.08;;;;;;;43.36;30.43;100573.69;1747681;80;21117;-77
2021/08/12 06:47:52;;;;;;;8.55;6.53;;;;;;;42.79;30.51;100568.36;1783496;80;21039;-78
2021/08/12 06:50:20;;;;;;;7.95;6.65;;;;;;;42.66;30.22;100569.23;1790336;80;21041;-78
2021/08/12 06:52:46;;;;;;;11.90;6.62;;;;;;;42.51;30.75;100564.94;1763538;80;20995;-78
2021/08/12 06:55:13;;;;;;;9.03;5.97;;;;;;;42.65;30.26;100573.32;1790560;80;20975;-76
2021/08/12 06:57:39;;;;;;;7.17;5.75;;;;;;;42.94;30.45;100578.31;1790509;80;21887;-80
2021/08/12 07:00:07;;;;;;;13.95;6.20;;;;;;;43.08;30.33;100579.63;1790318;80;21027;-79
2021/08/12 07:02:33;;;;;;;11.70;6.33;;;;;;;43.49;29.59;100580.65;1764227;80;20995;-80
2021/08/12 07:04:59;;;;;;;7.80;5.33;;;;;;;43.47;27.77;100576.09;1763834;80;20888;-82
2021/08/12 07:07:37;;;;;;;6.22;5.37;;;;;;;43.06;27.67;100582.93;1790619;80;20881;-83
2021/08/12 07:10:04;;;;;;;8.68;5.45;;;;;;;42.57;27.45;100582.06;1790532;80;21235;-80
2021/08/12 07:12:33;;;;;;;5.90;5.22;;;;;;;42.48;27.96;100587.77;1790348;80;21011;-78
2021/08/12 07:14:58;;;;;;;8.28;5.62;;;;;;;42.75;27.67;100589.03;1789849;80;20990;-79
2021/08/12 07:17:25;;;;;;;11.08;5.85;;;;;;;42.75;26.65;100582.59;1790887;80;21479;-83
2021/08/12 07:19:51;;;;;;;11.18;5.08;;;;;;;42.68;26.74;100582.91;1790496;80;21023;-85
2021/08/12 07:22:19;;;;;;;5.25;4.75;;;;;;;42.50;26.54;100590.91;1764057;80;21179;-83
2021/08/12 07:24:45;;;;;;;8.93;5.15;;;;;;;42.42;26.80;100584.84;1790464;80;21058;-84
2021/08/12 07:27:10;;;;;;;8.33;5.30;;;;;;;42.79;26.47;100588.84;1790659;80;20853;-82
2021/08/12 07:29:36;;;;;;;5.80;4.87;;;;;;;43.22;26.06;100587.40;1790562;80;20927;-84
2021/08/12 07:32:04;;;;;;;5.90;5.30;;;;;;;43.67;25.48;100583.95;1790735;80;20904;-82
2021/08/12 07:34:30;;;;;;;5.80;5.30;;;;;;;43.85;24.73;100587.20;1791020;80;21149;-83
2021/08/12 07:36:56;;;;;;;7.85;5.60;;;;;;;44.08;24.60;100576.22;1790875;80;20895;-82
2021/08/12 07:39:22;;;;;;;9.65;5.60;;;;;;;44.46;24.27;100582.33;1790764;80;20971;-82
2021/08/12 07:41:48;;;;;;;5.95;5.37;;;;;;;44.72;23.56;100575.93;1790672;80;20861;-83
2021/08/12 07:44:14;;;;;;;5.92;5.42;;;;;;;44.43;23.37;100582.67;1790708;80;20987;-83
2021/08/12 07:46:41;;;;;;;6.65;5.85;;;;;;;43.98;22.72;100582.67;1790937;80;21090;-82
2021/08/12 07:49:07;;;;;;;7.50;5.70;;;;;;;43.96;23.33;100584.56;1784991;80;21452;-84
2021/08/12 07:51:33;;;;;;;6.45;5.33;;;;;;;44.06;22.36;100573.85;1784738;80;21063;-80
2021/08/12 07:53:59;;;;;;;9.70;5.05;;;;;;;43.73;22.44;100579.14;1784389;80;21054;-83
2021/08/12 07:56:25;;;;;;;12.68;5.80;;;;;;;43.64;22.47;100577.83;1784445;79;20975;-83
2021/08/12 07:58:51;;;;;;;7.00;5.05;;;;;;;43.51;22.23;100580.95;1784442;80;21055;-86
2021/08/12 08:01:19;;;;;;;7.83;5.17;;;;;;;43.00;22.66;100565.02;1784605;79;21065;-82
2021/08/12 08:03:46;;;;;;;5.72;5.15;;;;;;;43.38;22.93;100561.23;1765872;81;21136;-81
2021/08/12 08:06:13;;;;;;;7.10;4.70;;;;;;;43.76;22.65;100566.02;1765934;81;21065;-77
2021/08/12 08:08:39;;;;;;;5.15;4.75;;;;;;;43.96;22.17;100568.16;1765914;81;21010;-82
2021/08/12 08:11:06;;;;;;;10.43;5.00;;;;;;;43.86;21.72;100568.09;1765852;81;21926;-82
2021/08/12 08:13:35;;;;;;;6.53;5.12;;;;;;;43.67;22.23;100567.55;1765777;81;21058;-83
2021/08/12 08:16:01;;;;;;;9.55;4.30;;;;;;;43.74;22.67;100571.39;1766083;81;21018;-82
2021/08/12 08:18:27;;;;;;;12.53;4.83;;;;;;;43.82;21.37;100578.24;1765966;81;21553;-82
2021/08/12 08:20:53;;;;;;;6.55;4.87;;;;;;;43.45;21.17;100580.08;1765887;81;21042;-82
2021/08/12 08:23:20;;;;;;;7.50;4.65;;;;;;;43.66;22.05;100585.23;1766119;81;21089;-82
2021/08/12 08:25:46;;;;;;;6.03;4.33;;;;;;;43.90;21.26;100586.51;1765972;81;20999;-81
2021/08/12 08:28:12;;;;;;;7.35;4.67;;;;;;;44.25;21.26;100586.41;1773830;80;20981;-83
2021/08/12 08:30:39;;;;;;;6.75;5.03;;;;;;;44.46;21.46;100578.06;1754594;80;21558;-82
2021/08/12 08:33:05;;;;;;;8.33;4.90;;;;;;;44.48;20.91;100582.63;1783588;80;21077;-81
2021/08/12 08:35:32;;;;;;;6.05;4.65;;;;;;;44.46;21.00;100591.50;1765423;79;21063;-84
2021/08/12 08:37:59;;;;;;;7.25;4.42;;;;;;;44.46;20.91;100594.34;1761583;81;21010;-82
2021/08/12 08:40:29;;;;;;;6.87;4.80;;;;;;;44.40;20.52;100599.95;1761337;81;21103;-81
2021/08/12 08:42:54;;;;;;;6.20;4.90;;;;;;;44.29;20.54;100599.76;1759328;80;20990;-82
2021/08/12 08:45:24;;;;;;;5.05;4.45;;;;;;;44.42;20.47;100606.70;1747479;82;21087;-80
2021/08/12 08:47:52;;;;;;;9.83;5.05;;;;;;;44.35;20.54;100599.22;1760892;79;21934;-81
2021/08/12 08:50:21;;;;;;;8.68;4.55;;;;;;;43.98;21.02;100596.22;1758390;81;21432;-82
2021/08/12 08:52:49;;;;;;;5.75;4.50;;;;;;;44.03;21.87;100593.95;1758843;81;21058;-82
2021/08/12 08:55:22;;;;;;;9.55;4.80;;;;;;;44.04;21.54;100602.00;1758548;81;21023;-83
2021/08/12 08:57:51;;;;;;;6.58;4.20;;;;;;;43.37;21.64;100593.72;1756214;81;21436;-82
2021/08/12 09:00:18;;;;;;;7.20;4.47;;;;;;;43.33;22.77;100602.44;1758806;81;21065;-83
2021/08/12 09:02:51;;;;;;;7.33;4.67;;;;;;;43.64;21.43;100597.70;1758703;80;21003;-83
2021/08/12 09:05:18;;;;;;;10.80;4.30;;;;;;;43.26;21.68;100605.00;1758759;81;21471;-82
2021/08/12 09:07:45;;;;;;;8.68;4.20;;;;;;;43.01;21.71;100611.22;1738956;81;21507;-82
2021/08/12 09:10:13;;;;;;;8.03;4.15;;;;;;;42.77;21.83;100603.52;1758633;81;21518;-82
2021/08/12 09:12:41;;;;;;;6.60;4.10;;;;;;;42.57;21.87;100615.44;1757566;81;21143;-81
2021/08/12 09:15:09;;;;;;;7.20;4.30;;;;;;;42.43;22.49;100614.09;1758616;81;21015;-82
2021/08/12 09:17:36;;;;;;;5.30;3.90;;;;;;;42.30;22.80;100606.45;1750995;80;21077;-78
2021/08/12 09:20:14;;;;;;;6.72;4.20;;;;;;;42.33;23.15;100602.68;1773840;79;21106;-83
2021/08/12 09:22:57;;;;;;;8.68;4.20;;;;;;;42.52;23.10;100604.75;1777960;79;21013;-85
2021/08/12 09:25:34;;;;;;;6.87;3.92;;;;;;;42.61;22.51;100614.61;1698796;82;21077;-81
2021/08/12 09:28:14;;;;;;;6.40;4.65;;;;;;;42.24;23.05;100616.84;1701556;82;21053;-82
2021/08/12 09:30:43;;;;;;;5.40;3.77;;;;;;;42.40;23.10;100623.56;1691737;84;21049;-83
2021/08/12 09:33:16;;;;;;;6.65;4.33;;;;;;;41.94;22.56;100634.28;1669217;85;21673;-83
2021/08/12 09:35:46;;;;;;;4.95;3.67;;;;;;;41.42;23.29;100636.25;1651161;86;21132;-83
2021/08/12 09:38:14;;;;;;;5.03;3.75;;;;;;;40.87;23.53;100642.66;1659737;85;21555;-83
2021/08/12 09:40:45;;;;;;;6.17;4.08;;;;;;;40.62;23.36;100636.02;1662556;85;21077;-82
2021/08/12 09:43:11;;;;;;;4.87;3.90;;;;;;;40.31;24.69;100652.22;1649335;85;21562;-87
2021/08/12 09:45:40;;;;;;;5.87;3.98;;;;;;;40.37;24.73;100642.66;1657541;85;21145;-82
2021/08/12 09:48:17;;;;;;;6.75;3.77;;;;;;;40.30;25.50;100636.50;1651849;86;21041;-82
2021/08/12 09:50:59;;;;;;;8.05;4.35;;;;;;;40.21;25.69;100632.23;1651936;86;21199;-82
2021/08/12 09:53:25;;;;;;;8.25;4.10;;;;;;;39.96;25.76;100641.05;1598225;89;21626;-83
2021/08/12 09:55:52;;;;;;;8.60;3.75;;;;;;;39.85;25.76;100632.20;1598611;89;21141;-83
2021/08/12 09:58:19;;;;;;;5.95;3.77;;;;;;;39.85;25.79;100638.62;1598294;89;21046;-82
2021/08/12 10:00:47;;;;;;;6.08;3.87;;;;;;;39.99;26.24;100637.92;1598402;89;21034;-81
2021/08/12 10:03:31;;;;;;;11.68;3.80;;;;;;;40.16;25.70;100635.03;1598551;89;21942;-83
2021/08/12 10:06:02;;;;;;;9.98;4.00;;;;;;;40.04;26.05;100637.33;1598186;89;21596;-82
2021/08/12 10:08:37;;;;;;;7.47;4.20;;;;;;;39.74;25.89;100638.24;1596973;88;21097;-83
2021/08/12 10:11:27;;;;;;;5.90;3.77;;;;;;;39.51;25.95;100646.55;1592744;89;21151;-84
2021/08/12 10:14:00;;;;;;;7.10;4.35;;;;;;;39.40;26.30;100636.28;1570227;90;21461;-83
2021/08/12 10:16:31;;;;;;;8.38;3.95;;;;;;;39.40;27.09;100626.41;1523549;93;21234;-82
2021/08/12 10:18:59;;;;;;;6.85;3.95;;;;;;;39.33;26.98;100640.75;1483483;96;21198;-82
2021/08/12 10:21:26;;;;;;;14.35;4.45;;;;;;;39.12;27.15;100632.41;1485871;95;21159;-80
2021/08/12 10:23:56;;;;;;;6.72;3.70;;;;;;;39.24;26.99;100628.74;1504665;95;21143;-79
2021/08/12 10:26:28;;;;;;;6.40;3.92;;;;;;;39.17;27.29;100638.25;1504557;95;21019;-83
2021/08/12 10:29:05;;;;;;;5.95;3.90;;;;;;;39.23;27.91;100642.06;1504312;94;21955;-80
2021/08/12 10:31:32;;;;;;;11.88;4.00;;;;;;;39.19;27.07;100637.81;1535321;92;21123;-90
2021/08/12 10:33:59;;;;;;;5.33;3.35;;;;;;;39.17;27.10;100645.30;1534603;93;21058;-82
2021/08/12 10:36:25;;;;;;;10.20;3.85;;;;;;;39.01;27.08;100646.89;1534688;92;21093;-82
2021/08/12 10:38:52;;;;;;;7.92;3.65;;;;;;;39.00;27.57;100647.49;1515403;92;21079;-89
2021/08/12 10:41:19;;;;;;;6.65;3.95;;;;;;;38.93;28.05;100646.34;1551108;91;21163;-83
2021/08/12 10:43:49;;;;;;;7.47;3.90;;;;;;;38.64;28.27;100643.67;1562745;91;21101;-82
2021/08/12 10:46:32;;;;;;;8.23;3.80;;;;;;;38.49;28.20;100648.20;1559845;91;21065;-83
2021/08/12 10:49:27;;;;;;;7.80;3.90;;;;;;;38.27;28.28;100641.82;1561872;91;21108;-83
2021/08/12 10:52:09;;;;;;;5.78;3.83;;;;;;;38.20;28.79;100644.84;1562603;91;21222;-83
2021/08/12 10:54:38;;;;;;;7.20;4.05;;;;;;;38.14;28.37;100651.65;1563009;91;21881;-83
2021/08/12 10:57:22;;;;;;;6.50;4.10;;;;;;;37.86;28.58;100652.50;1562824;91;21134;-84
2021/08/12 10:59:51;;;;;;;6.03;3.62;;;;;;;37.58;29.24;100652.70;1562895;91;21068;-84
2021/08/12 11:02:34;;;;;;;12.58;3.80;;;;;;;37.64;29.47;100649.51;1562653;91;21497;-84
2021/08/12 11:07:42;;;;;;;8.65;4.37;;;;;;;37.15;29.89;100648.21;1529479;93;21148;-83
2021/08/12 11:10:14;;;;;;;7.55;4.37;;;;;;;37.10;29.68;100645.96;1582429;89;21100;-81
2021/08/12 11:12:59;;;;;;;7.60;3.67;;;;;;;36.89;29.77;100657.08;1582512;90;21612;-82
2021/08/12 11:15:43;;;;;;;6.50;4.03;;;;;;;36.79;29.72;100649.11;1582668;90;21552;-83
2021/08/12 11:18:18;;;;;;;10.38;4.00;;;;;;;36.60;30.81;100655.78;1534762;93;21578;-81
2021/08/12 11:20:47;;;;;;;9.00;3.90;;;;;;;36.80;30.66;100650.09;1532593;93;21168;-82
2021/08/12 11:23:21;;;;;;;5.80;4.10;;;;;;;36.91;30.09;100654.63;1577223;90;21269;-82
2021/08/12 11:26:03;;;;;;;7.92;3.83;;;;;;;36.80;30.69;100654.92;1537662;93;21111;-81